createdAt,value
2022-12-18T00:01:27.679Z,21.73
2022-12-18T00:03:55.991Z,19.80
2022-12-18T00:06:24.543Z,20.52
2022-12-18T00:08:52.064Z,18.58
2022-12-18T00:11:20.817Z,19.75
2022-12-18T00:13:48.245Z,16.85
2022-12-18T00:16:19.478Z,18.42
2022-12-18T00:18:46.235Z,17.48
2022-12-18T00:21:14.892Z,16.13
2022-12-18T00:23:43.718Z,16.55
2022-12-18T00:26:20.164Z,17.90
2022-12-18T00:28:47.983Z,18.48
2022-12-18T00:31:17.914Z,17.35
2022-12-18T00:33:45.012Z,18.35
2022-12-18T00:36:17.244Z,17.42
2022-12-18T00:38:45.083Z,17.35
2022-12-18T00:41:14.660Z,17.38
2022-12-18T00:43:41.575Z,16.17
2022-12-18T00:46:08.604Z,13.27
2022-12-18T00:48:36.380Z,15.13
2022-12-18T00:51:03.121Z,14.90
2022-12-18T00:53:29.792Z,14.93
2022-12-18T00:55:56.657Z,14.88
2022-12-18T00:58:23.260Z,15.82
2022-12-18T01:00:49.976Z,15.05
2022-12-18T01:03:16.730Z,15.63
2022-12-18T01:05:43.937Z,14.98
2022-12-18T01:08:10.846Z,15.00
2022-12-18T01:10:41.484Z,14.43
2022-12-18T01:13:08.216Z,14.05
2022-12-18T01:15:34.883Z,14.48
2022-12-18T01:18:01.605Z,14.80
2022-12-18T01:20:28.463Z,15.18
2022-12-18T01:22:55.182Z,14.50
2022-12-18T01:25:21.757Z,16.02
2022-12-18T01:27:49.466Z,14.57
2022-12-18T01:30:16.234Z,15.35
2022-12-18T01:32:43.037Z,13.13
2022-12-18T01:35:09.775Z,13.95
2022-12-18T01:37:36.736Z,11.98
2022-12-18T01:40:03.567Z,14.27
2022-12-18T01:42:39.190Z,14.98
2022-12-18T01:45:14.901Z,12.57
2022-12-18T01:48:00.078Z,13.63
2022-12-18T01:50:43.991Z,14.32
2022-12-18T01:53:16.390Z,12.50
2022-12-18T01:55:53.093Z,12.93
2022-12-18T01:58:23.200Z,11.80
2022-12-18T02:00:49.918Z,13.38
2022-12-18T02:03:16.899Z,15.25
2022-12-18T02:06:22.073Z,14.55
2022-12-18T02:09:10.130Z,12.52
2022-12-18T02:11:50.208Z,13.27
2022-12-18T02:14:38.750Z,13.35
2022-12-18T02:17:12.953Z,13.27
2022-12-18T02:20:11.928Z,13.68
2022-12-18T02:22:45.352Z,13.23
2022-12-18T02:25:22.594Z,12.68
2022-12-18T02:27:51.930Z,12.48
2022-12-18T02:30:20.144Z,12.27
2022-12-18T02:32:51.047Z,12.57
2022-12-18T02:35:23.444Z,12.18
2022-12-18T02:37:51.715Z,12.75
2022-12-18T02:40:19.957Z,11.90
2022-12-18T02:42:46.620Z,12.07
2022-12-18T02:45:13.549Z,13.02
2022-12-18T02:47:44.680Z,11.88
2022-12-18T02:50:37.437Z,13.48
2022-12-18T02:53:25.446Z,11.15
2022-12-18T02:56:13.883Z,11.68
2022-12-18T02:59:01.919Z,12.88
2022-12-18T03:01:47.326Z,12.38
2022-12-18T03:04:26.895Z,11.75
2022-12-18T03:07:00.538Z,11.35
2022-12-18T03:09:43.262Z,11.98
2022-12-18T03:12:24.559Z,12.07
2022-12-18T03:14:59.479Z,10.43
2022-12-18T03:17:30.366Z,9.80
2022-12-18T03:20:01.192Z,10.02
2022-12-18T03:22:34.285Z,11.15
2022-12-18T03:25:04.339Z,10.80
2022-12-18T03:27:34.344Z,10.98
2022-12-18T03:30:09.459Z,10.48
2022-12-18T03:33:04.608Z,9.18
2022-12-18T03:35:36.129Z,9.90
2022-12-18T03:38:03.114Z,9.75
2022-12-18T03:41:01.477Z,9.38
2022-12-18T03:43:51.427Z,10.95
2022-12-18T03:46:43.614Z,12.52
2022-12-18T03:49:15.021Z,11.15
2022-12-18T03:51:49.597Z,12.15
2022-12-18T03:54:17.761Z,9.90
2022-12-18T03:56:49.980Z,10.13
2022-12-18T03:59:18.267Z,10.18
2022-12-18T04:01:49.033Z,11.82
2022-12-18T04:04:20.090Z,8.65
2022-12-18T04:06:51.314Z,9.98
2022-12-18T04:09:19.266Z,9.70
2022-12-18T04:11:47.782Z,10.23
2022-12-18T04:14:17.702Z,10.00
2022-12-18T04:16:45.771Z,9.52
2022-12-18T04:19:12.552Z,8.93
2022-12-18T04:21:39.396Z,9.43
2022-12-18T04:24:06.255Z,9.80
2022-12-18T04:26:33.965Z,10.23
2022-12-18T04:29:00.689Z,11.65
2022-12-18T04:31:27.588Z,10.75
2022-12-18T04:33:54.316Z,9.70
2022-12-18T04:36:21.076Z,8.20
2022-12-18T04:38:47.740Z,9.20
2022-12-18T04:41:14.442Z,9.25
2022-12-18T04:43:41.337Z,9.15
2022-12-18T04:46:09.211Z,8.77
2022-12-18T04:48:36.744Z,8.18
2022-12-18T04:51:04.774Z,8.55
2022-12-18T04:53:31.620Z,8.43
2022-12-18T04:56:12.601Z,6.90
2022-12-18T04:58:41.187Z,8.23
2022-12-18T05:01:08.630Z,7.40
2022-12-18T05:03:37.516Z,7.57
2022-12-18T05:06:06.117Z,10.68
2022-12-18T05:08:33.054Z,8.10
2022-12-18T05:11:05.835Z,9.25
2022-12-18T05:13:33.737Z,9.07
2022-12-18T05:16:00.511Z,9.43
2022-12-18T05:18:28.559Z,7.93
2022-12-18T05:20:55.910Z,8.43
2022-12-18T05:23:24.281Z,7.60
2022-12-18T05:25:55.987Z,6.68
2022-12-18T05:28:23.939Z,6.63
2022-12-18T05:30:59.575Z,5.97
2022-12-18T05:33:28.375Z,6.07
2022-12-18T05:35:57.314Z,6.00
2022-12-18T05:38:25.898Z,6.65
2022-12-18T05:40:53.851Z,7.15
2022-12-18T05:43:24.599Z,7.10
2022-12-18T05:45:52.264Z,6.22
2022-12-18T05:48:19.537Z,6.68
2022-12-18T05:50:47.973Z,7.18
2022-12-18T05:53:17.297Z,6.68
2022-12-18T05:55:45.072Z,5.80
2022-12-18T05:58:13.231Z,6.60
2022-12-18T06:00:43.658Z,6.63
2022-12-18T06:03:11.696Z,6.90
2022-12-18T06:05:41.785Z,7.05
2022-12-18T06:08:08.876Z,6.05
2022-12-18T06:10:35.716Z,5.88
2022-12-18T06:13:03.746Z,6.70
2022-12-18T06:15:30.487Z,6.82
2022-12-18T06:17:57.159Z,6.97
2022-12-18T06:20:24.282Z,6.43
2022-12-18T06:22:52.135Z,6.70
2022-12-18T06:25:18.939Z,5.45
2022-12-18T06:27:48.931Z,6.03
2022-12-18T06:30:16.398Z,6.57
2022-12-18T06:32:43.027Z,5.40
2022-12-18T06:35:09.858Z,5.65
2022-12-18T06:37:36.748Z,7.80
2022-12-18T06:40:03.661Z,6.25
2022-12-18T06:42:49.232Z,7.40
2022-12-18T06:45:15.951Z,7.28
2022-12-18T06:47:42.732Z,8.48
2022-12-18T06:50:09.542Z,7.45
2022-12-18T06:52:36.478Z,7.18
2022-12-18T06:55:03.935Z,8.02
2022-12-18T06:57:30.683Z,6.75
2022-12-18T06:59:57.318Z,8.02
2022-12-18T07:02:25.312Z,8.43
2022-12-18T07:04:53.315Z,7.68
2022-12-18T07:07:20.039Z,7.47
2022-12-18T07:09:46.672Z,7.15
2022-12-18T07:12:14.326Z,7.15
2022-12-18T07:14:42.268Z,7.50
2022-12-18T07:17:09.117Z,7.05
2022-12-18T07:19:36.022Z,7.53
2022-12-18T07:22:03.024Z,5.68
2022-12-18T07:24:29.986Z,6.72
2022-12-18T07:26:56.711Z,6.38
2022-12-18T07:29:24.484Z,6.50
2022-12-18T07:31:51.226Z,8.00
2022-12-18T07:34:18.004Z,8.52
2022-12-18T07:36:44.812Z,7.72
2022-12-18T07:39:13.534Z,7.60
2022-12-18T07:41:46.715Z,6.72
2022-12-18T07:44:14.046Z,8.02
2022-12-18T07:46:40.765Z,7.40
2022-12-18T07:49:08.531Z,6.68
2022-12-18T07:51:35.131Z,6.70
2022-12-18T07:54:03.897Z,6.88
2022-12-18T07:56:31.555Z,7.13
2022-12-18T07:59:00.822Z,7.28
2022-12-18T08:01:28.247Z,6.72
2022-12-18T08:03:56.305Z,6.35
2022-12-18T08:06:24.257Z,5.35
2022-12-18T08:08:56.329Z,6.50
2022-12-18T08:11:24.497Z,6.40
2022-12-18T08:13:51.244Z,5.70
2022-12-18T08:16:18.753Z,6.68
2022-12-18T08:18:46.344Z,6.57
2022-12-18T08:21:22.343Z,5.97
2022-12-18T08:23:50.028Z,6.00
2022-12-18T08:26:18.398Z,5.60
2022-12-18T08:28:47.237Z,5.75
2022-12-18T08:31:14.998Z,6.43
2022-12-18T08:33:42.818Z,5.63
2022-12-18T08:36:11.115Z,6.00
2022-12-18T08:38:37.958Z,6.18
2022-12-18T08:41:07.880Z,6.05
2022-12-18T08:43:54.822Z,5.72
2022-12-18T08:46:23.508Z,5.95
2022-12-18T08:48:52.538Z,5.50
2022-12-18T08:51:19.316Z,6.13
2022-12-18T08:53:45.988Z,7.22
2022-12-18T08:56:14.025Z,5.93
2022-12-18T08:58:41.586Z,5.88
2022-12-18T09:01:11.709Z,5.35
2022-12-18T09:03:39.804Z,6.97
2022-12-18T09:06:07.776Z,6.95
2022-12-18T09:08:35.308Z,6.85
2022-12-18T09:11:01.974Z,5.10
2022-12-18T09:13:28.819Z,7.32
2022-12-18T09:15:56.962Z,7.63
2022-12-18T09:18:24.719Z,6.15
2022-12-18T09:20:54.002Z,6.38
2022-12-18T09:23:22.335Z,5.30
2022-12-18T09:25:49.478Z,4.85
2022-12-18T09:28:18.764Z,6.20
2022-12-18T09:30:48.897Z,5.47
2022-12-18T09:33:16.372Z,5.47
2022-12-18T09:35:45.053Z,5.97
2022-12-18T09:38:20.443Z,5.38
2022-12-18T09:40:52.120Z,4.63
2022-12-18T09:43:28.395Z,5.40
2022-12-18T09:46:03.101Z,5.68
2022-12-18T09:48:33.379Z,4.47
2022-12-18T09:51:06.761Z,4.85
2022-12-18T09:53:39.291Z,5.20
2022-12-18T09:56:06.617Z,5.68
2022-12-18T09:58:48.948Z,5.05
2022-12-18T10:01:20.117Z,4.53
2022-12-18T10:03:48.046Z,5.43
2022-12-18T10:06:36.896Z,5.75
2022-12-18T10:09:35.053Z,4.63
2022-12-18T10:12:20.715Z,5.15
2022-12-18T10:15:06.914Z,5.05
2022-12-18T10:17:43.390Z,5.05
2022-12-18T10:20:18.752Z,5.57
2022-12-18T10:22:50.792Z,3.72
2022-12-18T10:25:17.744Z,4.95
2022-12-18T10:27:44.696Z,5.30
2022-12-18T10:30:20.735Z,5.13
2022-12-18T10:32:47.424Z,5.20
2022-12-18T10:35:24.248Z,5.35
2022-12-18T10:38:13.207Z,4.97
2022-12-18T10:40:54.708Z,5.15
2022-12-18T10:43:24.759Z,4.55
2022-12-18T10:46:03.112Z,5.03
2022-12-18T10:48:33.252Z,4.68
2022-12-18T10:51:10.825Z,5.28
2022-12-18T10:53:42.932Z,5.20
2022-12-18T10:56:11.285Z,4.53
2022-12-18T10:58:40.514Z,4.90
2022-12-18T11:01:15.269Z,5.05
2022-12-18T11:04:02.666Z,4.18
2022-12-18T11:09:09.501Z,4.50
2022-12-18T11:11:40.502Z,4.45
2022-12-18T11:14:16.398Z,5.18
2022-12-18T11:17:23.762Z,4.45
2022-12-18T11:19:42.366Z,5.10
2022-12-18T11:22:25.442Z,4.63
2022-12-18T11:25:30.216Z,4.80
2022-12-18T11:27:54.031Z,4.38
2022-12-18T11:30:43.821Z,3.67
2022-12-18T11:33:23.175Z,4.75
2022-12-18T11:35:55.753Z,4.57
2022-12-18T11:38:23.863Z,4.45
2022-12-18T11:41:05.263Z,4.70
2022-12-18T11:43:47.129Z,5.13
2022-12-18T11:46:20.260Z,4.38
2022-12-18T11:48:50.006Z,4.57
2022-12-18T11:51:27.454Z,4.72
2022-12-18T11:53:54.187Z,4.45
2022-12-18T11:56:40.387Z,4.10
2022-12-18T11:59:34.178Z,3.97
2022-12-18T12:02:24.473Z,4.03
2022-12-18T12:05:00.267Z,4.25
2022-12-18T12:08:13.225Z,4.35
2022-12-18T12:11:03.954Z,4.60
2022-12-18T12:13:55.135Z,4.35
2022-12-18T12:16:42.950Z,4.05
2022-12-18T12:19:51.286Z,3.78
2022-12-18T12:22:17.849Z,3.30
2022-12-18T12:25:26.553Z,3.60
2022-12-18T12:28:31.824Z,3.83
2022-12-18T12:31:36.588Z,4.50
2022-12-18T12:34:09.425Z,4.63
2022-12-18T12:37:05.650Z,4.00
2022-12-18T12:39:38.528Z,3.80
2022-12-18T12:42:38.152Z,4.55
2022-12-18T12:45:15.128Z,3.70
2022-12-18T12:50:22.410Z,3.80
2022-12-18T12:52:54.524Z,3.85
2022-12-18T12:55:29.770Z,3.60
2022-12-18T12:58:16.457Z,3.97
2022-12-18T13:00:59.571Z,4.43
2022-12-18T13:03:35.326Z,3.28
2022-12-18T13:06:12.293Z,3.97
2022-12-18T13:09:00.272Z,4.55
2022-12-18T13:12:01.132Z,3.90
2022-12-18T13:14:32.663Z,4.35
2022-12-18T13:17:21.290Z,4.05
2022-12-18T13:20:09.137Z,3.80
2022-12-18T13:22:36.992Z,3.80
2022-12-18T13:25:25.155Z,3.90
2022-12-18T13:28:10.559Z,4.45
2022-12-18T13:30:37.237Z,4.07
2022-12-18T13:33:23.096Z,3.95
2022-12-18T13:35:52.459Z,3.80
2022-12-18T13:38:35.110Z,4.18
2022-12-18T13:41:17.057Z,4.00
2022-12-18T13:43:47.388Z,3.90
2022-12-18T13:46:43.030Z,3.95
2022-12-18T13:49:16.641Z,3.63
2022-12-18T13:51:50.288Z,4.20
2022-12-18T13:54:23.170Z,5.07
2022-12-18T13:56:50.359Z,4.40
2022-12-18T13:59:24.598Z,4.63
2022-12-18T14:01:58.106Z,4.03
2022-12-18T14:04:27.044Z,4.38
2022-12-18T14:07:17.023Z,3.80
2022-12-18T14:09:50.067Z,4.43
2022-12-18T14:12:46.685Z,4.22
2022-12-18T14:17:41.885Z,4.57
2022-12-18T14:20:18.439Z,4.00
2022-12-18T14:22:48.208Z,4.03
2022-12-18T14:25:24.688Z,4.20
2022-12-18T14:28:08.847Z,3.67
2022-12-18T14:30:38.428Z,4.45
2022-12-18T14:33:09.375Z,3.85
2022-12-18T14:35:41.330Z,4.10
2022-12-18T14:38:17.160Z,4.28
2022-12-18T14:40:44.818Z,4.65
2022-12-18T14:43:14.883Z,4.18
2022-12-18T14:45:45.220Z,4.25
2022-12-18T14:48:26.933Z,4.40
2022-12-18T14:51:33.563Z,4.20
2022-12-18T14:54:09.297Z,4.13
2022-12-18T14:56:38.376Z,4.47
2022-12-18T14:59:23.741Z,4.43
2022-12-18T15:02:20.409Z,4.25
2022-12-18T15:04:47.430Z,4.32
2022-12-18T15:07:14.033Z,4.25
2022-12-18T15:09:43.022Z,4.63
2022-12-18T15:12:43.797Z,4.53
2022-12-18T15:15:38.396Z,4.35
2022-12-18T15:18:13.748Z,3.95
2022-12-18T15:20:51.377Z,4.13
2022-12-18T15:23:46.433Z,4.13
2022-12-18T15:26:16.680Z,4.50
2022-12-18T15:28:49.807Z,4.00
2022-12-18T15:31:18.049Z,4.30
2022-12-18T15:34:00.861Z,3.85
2022-12-18T15:36:30.472Z,4.28
2022-12-18T15:39:05.408Z,5.20
2022-12-18T15:41:36.237Z,5.10
2022-12-18T15:44:04.758Z,4.68
2022-12-18T15:46:32.261Z,4.40
2022-12-18T15:49:02.376Z,4.38
2022-12-18T15:51:34.340Z,4.00
2022-12-18T15:54:04.913Z,4.63
2022-12-18T15:56:50.222Z,4.60
2022-12-18T15:59:19.279Z,5.05
2022-12-18T16:01:48.356Z,4.57
2022-12-18T16:04:17.524Z,4.63
2022-12-18T16:07:13.443Z,4.65
2022-12-18T16:09:31.080Z,4.90
2022-12-18T16:11:57.961Z,4.47
2022-12-18T16:14:30.769Z,4.75
2022-12-18T16:17:03.414Z,4.45
2022-12-18T16:19:30.546Z,4.15
2022-12-18T16:21:59.156Z,3.92
2022-12-18T16:24:31.171Z,4.43
2022-12-18T16:27:01.205Z,5.15
2022-12-18T16:29:30.005Z,4.60
2022-12-18T16:31:59.171Z,4.53
2022-12-18T16:34:35.845Z,4.45
2022-12-18T16:37:06.863Z,4.75
2022-12-18T16:39:38.013Z,4.75
2022-12-18T16:42:17.557Z,4.75
2022-12-18T16:44:45.049Z,4.82
2022-12-18T16:47:14.999Z,5.68
2022-12-18T16:49:42.501Z,5.35
2022-12-18T16:52:09.286Z,4.57
2022-12-18T16:54:36.864Z,4.88
2022-12-18T16:57:05.537Z,5.43
2022-12-18T16:59:32.709Z,4.75
2022-12-18T17:01:59.613Z,5.13
2022-12-18T17:04:26.595Z,5.30
2022-12-18T17:06:54.993Z,4.53
2022-12-18T17:09:26.239Z,4.85
2022-12-18T17:11:54.053Z,5.30
2022-12-18T17:14:23.148Z,4.70
2022-12-18T17:17:07.414Z,5.43
2022-12-18T17:19:36.595Z,4.45
2022-12-18T17:22:04.516Z,4.60
2022-12-18T17:24:34.858Z,5.10
2022-12-18T17:27:02.865Z,5.75
2022-12-18T17:29:29.725Z,5.25
2022-12-18T17:31:56.545Z,5.00
2022-12-18T17:34:24.567Z,5.13
2022-12-18T17:36:51.348Z,4.80
2022-12-18T17:39:20.386Z,5.28
2022-12-18T17:41:48.400Z,5.07
2022-12-18T17:44:16.431Z,4.97
2022-12-18T17:46:43.897Z,5.03
2022-12-18T17:49:11.635Z,5.00
2022-12-18T17:51:38.361Z,5.18
2022-12-18T17:54:05.436Z,6.72
2022-12-18T17:56:33.906Z,5.88
2022-12-18T17:59:00.809Z,5.00
2022-12-18T18:01:29.728Z,4.82
2022-12-18T18:03:56.917Z,5.32
2022-12-18T18:06:24.243Z,5.15
2022-12-18T18:08:52.284Z,4.95
2022-12-18T18:11:40.007Z,5.15
2022-12-18T18:14:12.283Z,5.00
2022-12-18T18:16:42.563Z,5.32
2022-12-18T18:19:18.528Z,5.38
2022-12-18T18:21:48.100Z,5.43
2022-12-18T18:24:18.256Z,5.40
2022-12-18T18:26:46.825Z,5.35
2022-12-18T18:29:19.001Z,6.28
2022-12-18T18:31:46.272Z,5.65
2022-12-18T18:34:18.311Z,5.18
2022-12-18T18:36:46.315Z,5.30
2022-12-18T18:39:14.047Z,5.75
2022-12-18T18:41:40.798Z,5.80
2022-12-18T18:44:10.124Z,5.07
2022-12-18T18:46:36.906Z,5.55
2022-12-18T18:49:04.078Z,6.07
2022-12-18T18:51:34.876Z,5.70
2022-12-18T18:54:02.839Z,5.18
2022-12-18T18:59:18.433Z,5.53
2022-12-18T19:01:45.333Z,7.25
2022-12-18T19:04:12.254Z,6.28
2022-12-18T19:06:39.257Z,6.68
2022-12-18T19:09:06.751Z,7.13
2022-12-18T19:11:52.491Z,7.13
2022-12-18T19:14:23.098Z,6.75
2022-12-18T19:16:50.072Z,6.80
2022-12-18T19:19:21.110Z,7.13
2022-12-18T19:21:48.120Z,8.20
2022-12-18T19:24:14.951Z,7.65
2022-12-18T19:26:41.583Z,7.57
2022-12-18T19:29:09.564Z,7.10
2022-12-18T19:31:37.407Z,8.43
2022-12-18T19:34:06.916Z,8.50
2022-12-18T19:36:35.396Z,7.93
2022-12-18T19:39:07.238Z,7.72
2022-12-18T19:41:34.017Z,8.40
2022-12-18T19:44:07.467Z,10.00
2022-12-18T19:46:36.167Z,9.23
2022-12-18T19:49:07.239Z,8.43
2022-12-18T19:51:34.318Z,8.45
2022-12-18T19:54:02.213Z,8.75
2022-12-18T19:56:32.888Z,9.02
2022-12-18T19:59:00.060Z,9.88
2022-12-18T20:01:27.877Z,9.25
2022-12-18T20:03:55.877Z,9.70
2022-12-18T20:06:51.637Z,9.65
2022-12-18T20:09:19.955Z,9.13
2022-12-18T20:11:47.774Z,10.00
2022-12-18T20:14:16.890Z,10.07
2022-12-18T20:16:50.243Z,10.35
2022-12-18T20:19:17.052Z,10.43
2022-12-18T20:21:44.573Z,10.10
2022-12-18T20:24:11.206Z,10.52
2022-12-18T20:26:38.022Z,10.13
2022-12-18T20:29:05.377Z,9.30
2022-12-18T20:31:33.551Z,10.23
2022-12-18T20:34:02.675Z,10.27
2022-12-18T20:36:30.641Z,9.43
2022-12-18T20:39:00.520Z,10.23
2022-12-18T20:41:33.518Z,10.68
2022-12-18T20:44:10.983Z,10.53
2022-12-18T20:46:58.465Z,9.63
2022-12-18T20:49:26.727Z,9.90
2022-12-18T20:51:56.278Z,8.98
2022-12-18T20:54:25.032Z,9.45
2022-12-18T20:56:52.055Z,10.40
2022-12-18T20:59:19.887Z,10.85
2022-12-18T21:01:48.820Z,9.82
2022-12-18T21:04:18.688Z,10.85
2022-12-18T21:06:52.403Z,10.68
2022-12-18T21:09:21.539Z,11.32
2022-12-18T21:12:06.940Z,11.85
2022-12-18T21:14:33.962Z,10.98
2022-12-18T21:17:02.081Z,10.50
2022-12-18T21:19:30.149Z,11.23
2022-12-18T21:21:58.034Z,10.65
2022-12-18T21:24:25.623Z,11.13
2022-12-18T21:26:54.086Z,13.02
2022-12-18T21:29:24.792Z,11.68
2022-12-18T21:31:53.546Z,12.07
2022-12-18T21:34:32.114Z,11.35
2022-12-18T21:37:00.271Z,11.73
2022-12-18T21:39:28.876Z,10.85
2022-12-18T21:42:16.412Z,10.95
2022-12-18T21:44:43.861Z,12.90
2022-12-18T21:47:21.926Z,12.50
2022-12-18T21:49:51.864Z,12.32
2022-12-18T21:52:19.961Z,12.23
2022-12-18T21:54:48.708Z,10.73
2022-12-18T21:57:15.531Z,12.68
2022-12-18T21:59:46.143Z,11.38
2022-12-18T22:02:17.425Z,11.05
2022-12-18T22:04:46.065Z,12.48
2022-12-18T22:07:14.739Z,12.68
2022-12-18T22:09:41.718Z,11.18
2022-12-18T22:12:10.191Z,11.25
2022-12-18T22:14:36.781Z,12.98
2022-12-18T22:17:05.846Z,12.35
2022-12-18T22:19:38.145Z,10.90
2022-12-18T22:22:09.649Z,12.15
2022-12-18T22:24:36.563Z,12.60
2022-12-18T22:27:03.677Z,12.18
2022-12-18T22:29:49.563Z,12.75
2022-12-18T22:32:17.837Z,12.43
2022-12-18T22:34:59.370Z,12.15
2022-12-18T22:37:31.479Z,12.93
2022-12-18T22:39:58.482Z,13.00
2022-12-18T22:42:25.592Z,12.13
2022-12-18T22:44:52.342Z,12.15
2022-12-18T22:47:18.918Z,11.60
2022-12-18T22:49:46.771Z,12.57
2022-12-18T22:52:13.495Z,14.25
2022-12-18T22:54:42.266Z,12.93
2022-12-18T22:57:09.489Z,11.82
2022-12-18T22:59:36.187Z,12.23
2022-12-18T23:02:03.164Z,12.32
2022-12-18T23:04:35.905Z,13.18
2022-12-18T23:07:06.280Z,12.20
2022-12-18T23:09:33.536Z,13.07
2022-12-18T23:12:00.396Z,12.65
2022-12-18T23:21:21.130Z,11.27
2022-12-18T23:24:20.562Z,10.90
2022-12-18T23:36:55.965Z,11.88
2022-12-18T23:40:20.658Z,11.75
2022-12-18T23:43:35.608Z,12.23
2022-12-18T23:53:34.410Z,11.18
2022-12-18T23:56:26.454Z,12.15
2022-12-18T23:59:32.721Z,11.43
